Latest Weather Observations for Coolangatta

IDQ60901

Issued at 10:55 pm EST Thursday 30 October 2014 (issued every 10 minutes, with the page automatically refreshed every 10 minutes)

About weather observations | Map of Brisbane area stations | Latest observations for Brisbane area | Other Formats
Station Details ID: 040717 Name: COOLANGATTA Lat: -28.17 Lon: 153.51 Height: 4.0 m
Data from the previous 72 hours. | See also: Recent months at Coolangatta
Date/Time
EST
Tmp

°C
App
Tmp
°C
Dew
Point
°C
Rel
Hum
%
Delta-T

°C
Wind Press
QNH
hPa
Press
MSL
hPa
Rain
since
9 am
mm
Dir
 
Spd
km/h
Gust
km/h
Spd
kts
Gust
kts
30/10:30pm 22.5 22.7 19.3 82 2.0 NNW 17 22 9 12 1016.8 1016.8 0.0
30/10:00pm 22.3 22.8 19.3 83 1.9 NNW 15 20 8 11 1016.6 1016.6 0.0
30/09:30pm 22.1 22.6 19.3 84 1.8 N 15 19 8 10 1016.5 1016.5 0.0
30/09:00pm 21.9 22.7 19.1 84 1.8 NNW 13 17 7 9 1016.5 1016.5 0.0
30/08:30pm 22.3 22.7 19.1 82 2.0 N 15 19 8 10 1016.2 1016.2 0.0
30/08:00pm 22.4 22.4 19.0 81 2.1 N 17 20 9 11 1016.1 1016.1 0.0
30/07:30pm 22.6 22.9 18.8 79 2.4 N 15 20 8 11 1015.7 1015.7 0.0
30/07:00pm 22.7 22.7 18.9 79 2.4 N 17 20 9 11 1015.5 1015.5 0.0
30/06:30pm 22.9 23.0 19.1 79 2.4 N 17 20 9 11 1015.2 1015.2 0.0
30/06:00pm 22.9 23.6 18.9 78 2.5 NNE 13 17 7 9 1015.1 1015.1 0.0
30/05:30pm 22.9 23.0 18.4 76 2.8 N 15 19 8 10 1014.8 1014.8 0.0
30/05:00pm 23.5 23.2 18.2 72 3.3 NNE 17 20 9 11 1014.7 1014.7 0.0
30/04:30pm 23.8 23.2 17.5 68 3.9 NNE 17 20 9 11 1014.5 1014.5 0.0
30/04:00pm 24.1 23.5 17.6 67 4.0 NNE 17 24 9 13 1014.4 1014.4 0.0
30/03:30pm 24.3 23.0 16.8 63 4.6 NNE 19 22 10 12 1014.3 1014.3 0.0
30/03:00pm 25.1 23.9 17.0 60 5.0 NNE 19 20 10 11 1014.5 1014.5 0.0
30/02:30pm 25.5 24.2 16.9 59 5.3 NNE 19 26 10 14 1014.5 1014.5 0.0
30/02:00pm 25.5 23.9 16.6 58 5.5 NE 20 24 11 13 1014.8 1014.8 0.0
30/01:30pm 26.3 24.7 16.5 54 6.0 NE 20 26 11 14 1015.2 1015.2 0.0
30/01:00pm 25.8 23.6 14.9 51 6.5 ENE 20 28 11 15 1015.4 1015.4 0.0
30/12:30pm 25.7 23.7 16.5 56 5.7 NE 22 28 12 15 1015.8 1015.8 0.0
30/12:00pm 25.5 23.9 16.1 56 5.7 ENE 19 22 10 12 1016.4 1016.4 0.0
30/11:30am 25.8 24.6 16.1 55 5.9 NE 17 22 9 12 1016.8 1016.8 0.0
30/11:00am 25.0 24.0 15.6 56 5.7 NE 15 20 8 11 1017.1 1017.1 0.0
30/10:30am 25.5 24.7 15.2 53 6.2 NE 13 19 7 10 1017.5 1017.5 0.0
30/10:00am 25.3 24.0 14.7 51 6.3 NE 15 20 8 11 1017.6 1017.6 0.0
30/09:30am 25.2 23.6 14.0 49 6.6 NE 15 24 8 13 1018.0 1018.0 0.0
30/09:00am 25.2 24.1 14.3 50 6.5 NE 13 20 7 11 1018.3 1018.3 0.0
30/08:30am 24.9 24.1 15.0 54 5.9 NE 13 20 7 11 1018.7 1018.7 0.0
30/08:00am 24.1 24.9 15.9 60 5.0 SSW 6 13 3 7 1018.7 1018.7 0.0
30/07:30am 23.7 23.8 16.5 64 4.4 SSE 11 15 6 8 1018.5 1018.5 0.0
30/07:00am 22.9 23.5 16.9 69 3.7 S 9 13 5 7 1018.2 1018.2 0.0
30/06:30am 20.4 22.6 17.4 83 1.8 SSW 2 7 1 4 1017.9 1017.9 0.0
30/06:00am 18.6 20.9 17.6 94 0.6 S 2 6 1 3 1017.6 1017.6 0.0
30/05:30am 16.8 17.4 15.7 93 0.6 SW 7 9 4 5 1017.3 1017.3 0.0
30/05:00am 16.8 17.7 16.0 95 0.5 SSW 6 6 3 3 1017.0 1017.0 0.0
30/04:30am 17.0 18.3 16.2 95 0.5 SSW 4 7 2 4 1016.7 1016.7 0.0
30/04:00am 16.3 16.6 15.0 92 0.7 S 7 7 4 4 1016.6 1016.6 0.0
30/03:30am 17.1 17.4 16.1 94 0.6 SW 9 9 5 5 1016.7 1016.7 0.0
30/03:00am 16.2 16.5 14.9 92 0.7 SSW 7 9 4 5 1016.7 1016.7 0.0
30/02:30am 16.5 16.8 15.0 91 0.9 SW 7 9 4 5 1016.7 1016.7 0.0
30/02:00am 17.3 18.2 16.0 92 0.8 SW 6 7 3 4 1016.7 1016.7 0.0
30/01:30am 17.6 18.5 16.1 91 0.9 SW 6 6 3 3 1016.9 1016.9 0.0
30/01:00am 17.8 18.8 16.3 91 0.9 SSW 6 7 3 4 1017.1 1017.1 0.0
30/12:30am 18.0 18.8 16.3 90 1.0 SW 7 9 4 5 1017.2 1017.2 0.0
30/12:00am 17.9 18.6 16.1 89 1.1 SW 7 9 4 5 1017.6 1017.6 0.0
 
Date/Time
EST
Tmp

°C
App
Tmp
°C
Dew
Point
°C
Rel
Hum
%
Delta-T

°C
Wind Press
QNH
hPa
Press
MSL
hPa
Rain
since
9 am
mm
Dir
 
Spd
km/h
Gust
km/h
Spd
kts
Gust
kts
29/11:30pm 18.4 19.2 16.4 88 1.2 SW 7 9 4 5 1017.8 1017.8 0.0
29/11:00pm 18.7 19.6 16.5 87 1.3 WSW 7 9 4 5 1018.0 1018.0 0.0
29/10:30pm 18.6 19.3 16.0 85 1.5 WSW 7 9 4 5 1018.1 1018.1 0.0
29/10:00pm 19.5 20.3 16.3 82 1.9 SSW 7 9 4 5 1018.1 1018.1 0.0
29/09:30pm 20.0 20.9 16.6 81 2.1 S 7 11 4 6 1018.0 1018.0 0.0
29/09:00pm 20.0 20.8 16.4 80 2.2 S 7 9 4 5 1018.0 1018.0 0.0
29/08:30pm 19.9 20.6 16.0 78 2.3 S 7 11 4 6 1017.9 1017.9 0.0
29/08:00pm 21.1 21.2 16.5 75 2.8 SSE 11 15 6 8 1017.7 1017.7 0.0
29/07:30pm 21.6 21.1 16.8 74 2.9 SE 15 20 8 11 1017.3 1017.3 0.0
29/07:00pm 21.9 21.0 16.8 73 3.1 SE 17 24 9 13 1016.9 1016.9 0.0
29/06:30pm 22.2 21.0 17.1 73 3.1 SE 19 26 10 14 1016.5 1016.5 0.0
29/06:00pm 22.5 20.7 17.0 71 3.4 SSE 22 30 12 16 1016.2 1016.2 0.0
29/05:30pm 23.1 20.1 16.9 68 3.8 SSE 28 37 15 20 1015.7 1015.7 0.0
29/05:00pm 23.9 21.1 16.4 63 4.6 SSE 26 39 14 21 1015.3 1015.3 0.0
29/04:30pm 24.3 20.0 16.0 60 5.0 SSE 33 43 18 23 1014.9 1014.9 0.0
29/04:00pm 24.8 20.7 16.5 60 5.1 SSE 33 48 18 26 1014.5 1014.5 0.0
29/03:30pm 25.8 22.1 16.9 58 5.5 SSE 32 46 17 25 1014.4 1014.4 0.0
29/03:00pm 25.9 21.1 15.6 53 6.3 SSE 35 44 19 24 1014.3 1014.3 0.0
29/02:30pm 26.5 21.4 14.9 49 7.0 SSE 35 50 19 27 1014.3 1014.3 0.0
29/02:00pm 27.7 22.3 15.0 45 7.7 SE 37 46 20 25 1014.4 1014.4 0.0
29/01:30pm 27.4 22.4 14.1 44 7.9 SSE 33 46 18 25 1014.6 1014.6 0.0
29/01:00pm 27.1 21.1 13.4 42 8.1 SSE 37 48 20 26 1014.8 1014.8 0.0
29/12:30pm 27.7 22.8 15.4 47 7.5 SE 35 46 19 25 1015.0 1015.0 0.0
29/12:00pm 28.5 23.0 15.8 46 7.8 SE 39 46 21 25 1015.0 1015.0 0.0
29/11:30am 28.6 24.0 15.2 44 8.2 SE 33 46 18 25 1015.1 1015.1 0.0
29/11:00am 27.7 23.9 17.2 52 6.6 SE 33 46 18 25 1015.2 1015.2 0.0
29/10:30am 27.9 24.2 18.3 56 6.1 SE 35 46 19 25 1015.5 1015.5 0.0
29/10:24am 27.2 22.7 17.4 55 6.2 SE 37 46 20 25 1015.5 1015.5 0.0
29/10:00am 27.3 24.0 16.0 50 6.9 S 28 35 15 19 1015.6 1015.6 0.0
29/09:30am 27.5 25.4 17.1 53 6.5 S 24 33 13 18 1015.5 1015.5 0.0
29/09:00am 26.9 25.3 17.4 56 6.0 S 22 33 12 18 1015.4 1015.4 0.0
29/08:30am 25.1 23.9 17.0 60 5.0 S 19 28 10 15 1015.3 1015.3 0.0
29/08:00am 24.9 23.9 17.9 65 4.4 S 20 32 11 17 1015.1 1015.1 0.0
29/07:30am 24.0 23.0 17.5 67 4.0 S 19 26 10 14 1014.8 1014.8 0.0
29/07:00am 22.4 21.3 17.3 73 3.1 S 19 28 10 15 1014.5 1014.5 0.0
29/06:30am 20.7 20.8 17.5 82 2.0 S 13 17 7 9 1014.3 1014.3 0.0
29/06:00am 18.5 18.8 17.0 91 0.9 SSE 11 17 6 9 1014.0 1014.0 0.0
29/05:30am 17.0 17.4 16.2 95 0.5 S 9 11 5 6 1013.8 1013.8 0.0
29/05:22am 16.5 16.7 15.7 95 0.5 S 9 11 5 6 1013.6 1013.6 0.0
29/05:00am 16.3 17.4 15.5 95 0.5 S 4 6 2 3 1013.4 1013.4 0.0
29/04:54am 16.5 17.2 15.7 95 0.5 S 6 6 3 3 1013.4 1013.4 0.0
29/04:30am 16.8 17.7 16.0 95 0.5 SW 6 7 3 4 1012.9 1012.9 0.0
29/04:10am 16.6 16.8 15.8 95 0.5 SW 9 11 5 6 1012.7 1012.7 0.0
29/04:00am 17.1 17.9 16.3 95 0.5 SW 7 9 4 5 1012.6 1012.6 0.0
29/03:30am 16.3 17.2 15.2 93 0.6 SW 4 6 2 3 1012.4 1012.4 0.0
29/03:28am 16.3 17.3 15.3 94 0.6 SW 4 6 2 3 1012.4 1012.4 0.0
29/03:00am 16.9 17.2 15.9 94 0.6 WSW 9 11 5 6 1012.1 1012.0 0.0
29/02:57am 17.3 18.1 16.3 94 0.6 SW 7 9 4 5 1012.0 1011.9 0.0
29/02:30am 16.9 18.1 15.9 94 0.6 S 4 7 2 4 1012.0 1011.9 0.0
29/02:29am 16.7 17.4 15.7 94 0.6 S 6 9 3 5 1011.9 1011.8 0.0
29/02:00am 17.3 17.8 16.5 95 0.5 S 9 9 5 5 1011.8 1011.7 0.0
29/01:35am 15.9 16.2 14.4 91 0.9 S 6 9 3 5 1011.8 1011.7 0.0
29/01:30am 16.3 16.9 15.2 93 0.6 SSW 6 7 3 4 1011.9 1011.8 0.0
29/01:00am 17.4 17.8 16.3 93 0.7 SSW 9 11 5 6 1011.9 1011.8 0.0
29/12:30am 17.3 17.7 16.2 93 0.7 SW 9 11 5 6 1012.0 1011.9 0.0
29/12:29am 17.4 17.8 16.3 93 0.7 SW 9 11 5 6 1012.0 1011.9 0.0
29/12:02am 17.5 18.4 16.5 94 0.6 SSW 7 9 4 5 1012.0 1011.9 0.0
29/12:00am 17.5 18.4 16.5 94 0.6 SSW 7 9 4 5 1012.0 1011.9 0.0
 
Date/Time
EST
Tmp

°C
App
Tmp
°C
Dew
Point
°C
Rel
Hum
%
Delta-T

°C
Wind Press
QNH
hPa
Press
MSL
hPa
Rain
since
9 am
mm
Dir
 
Spd
km/h
Gust
km/h
Spd
kts
Gust
kts
28/11:43pm 17.4 18.2 16.3 93 0.7 SW 7 9 4 5 1012.0 1011.9 0.0
28/11:30pm 17.5 18.4 16.2 92 0.8 SW 6 6 3 3 1012.2 1012.1 0.0
28/11:00pm 18.1 19.7 16.8 92 0.8 SW 4 7 2 4 1012.3 1012.3 0.0
28/10:30pm 18.1 19.3 16.8 92 0.8 SSW 6 7 3 4 1012.5 1012.5 0.0
28/10:00pm 17.3 17.9 15.3 88 1.2 WSW 6 7 3 4 1012.2 1012.1 0.0
28/09:30pm 17.4 18.9 14.7 84 1.6 CALM 0 7 0 4 1012.2 1012.1 0.0
28/09:00pm 19.0 19.8 16.4 85 1.6 WSW 7 9 4 5 1012.3 1012.3 0.0
28/08:30pm 19.3 20.1 16.3 83 1.8 WSW 7 7 4 4 1012.2 1012.1 0.0
28/08:00pm 19.3 20.2 16.2 82 1.9 W 6 9 3 5 1012.0 1011.9 0.0
28/07:30pm 19.8 21.9 16.3 80 2.1 CALM 0 0 0 0 1011.8 1011.7 0.0
28/07:00pm 20.9 23.3 17.1 79 2.3 CALM 0 0 0 0 1011.3 1011.2 0.0
28/06:30pm 21.1 21.9 16.3 74 2.9 SE 7 9 4 5 1011.1 1011.0 0.0
28/06:00pm 22.9 23.9 16.9 69 3.7 SE 7 11 4 6 1010.8 1010.7 0.0
28/05:30pm 24.1 24.5 16.4 62 4.7 SE 9 13 5 7 1010.4 1010.3 0.0
28/05:00pm 24.8 24.4 15.1 54 5.8 E 11 17 6 9 1010.3 1010.2 0.0
28/04:30pm 25.2 25.5 16.9 60 5.1 E 11 17 6 9 1010.3 1010.2 0.0
28/04:00pm 25.2 25.7 17.4 62 4.9 ESE 11 20 6 11 1010.2 1010.1 0.0
28/03:30pm 25.4 25.4 17.3 61 5.0 E 13 19 7 10 1010.4 1010.3 0.0
28/03:00pm 26.4 26.2 17.5 58 5.6 ESE 15 20 8 11 1010.5 1010.4 0.0
28/02:30pm 26.2 24.8 17.0 57 5.7 ESE 20 26 11 14 1010.4 1010.3 0.0
28/02:00pm 26.1 23.4 16.6 55 5.9 SE 26 35 14 19 1010.7 1010.6 0.0
28/01:30pm 27.2 24.1 17.4 55 6.2 SE 30 43 16 23 1010.7 1010.6 0.0
28/01:00pm 26.8 23.0 15.8 51 6.7 SE 30 41 16 22 1010.9 1010.8 0.0
28/12:30pm 28.1 24.2 16.4 49 7.3 SE 32 41 17 22 1011.1 1011.0 0.0
28/12:00pm 27.9 22.7 14.5 44 8.1 SE 35 44 19 24 1011.2 1011.1 0.0
28/11:30am 28.0 22.5 13.5 41 8.6 SSE 35 44 19 24 1011.3 1011.2 0.0
28/11:00am 27.9 23.7 16.2 49 7.2 SSE 33 44 18 24 1011.4 1011.3 0.0
28/10:30am 27.9 23.9 16.8 50 6.9 SSE 33 46 18 25 1011.7 1011.6 0.0
28/10:00am 27.5 22.7 16.5 51 6.8 SSE 37 48 20 26 1011.9 1011.8 0.0
28/09:30am 27.1 22.2 16.4 52 6.6 SE 37 50 20 27 1011.8 1011.7 0.0
28/09:00am 27.8 23.8 17.6 53 6.4 SSE 35 52 19 28 1011.8 1011.7 0.0
28/08:45am 27.5 24.1 17.7 55 6.2 SSE 32 50 17 27 1011.6 1011.5 0.0
28/08:30am 27.0 23.1 17.8 57 5.8 SSE 35 50 19 27 1011.4 1011.3 0.0
28/08:00am 27.4 24.8 17.8 55 6.1 SSE 28 43 15 23 1011.1 1011.0 0.0
28/07:30am 26.9 26.1 18.5 60 5.4 SE 20 28 11 15 1010.8 1010.7 0.0
28/07:00am 25.5 22.9 17.9 63 4.8 SE 28 35 15 19 1010.2 1010.1 0.0
28/06:30am 27.1 23.6 16.4 52 6.6 SE 30 37 16 20 1009.6 1009.5 0.0
28/06:28am 27.2 22.8 15.2 47 7.3 SSE 32 37 17 20 1009.6 1009.5 0.0
28/06:00am 24.8 25.2 15.4 56 5.7 S 7 11 4 6 1008.6 1008.5 0.0
28/05:30am 23.9 24.2 15.9 61 4.8 SSE 9 11 5 6 1008.0 1007.9 0.0
28/05:00am 23.2 23.7 15.0 60 4.9 WNW 6 7 3 4 1007.8 1007.7 0.0
28/04:30am 24.6 25.1 15.5 57 5.5 E 7 11 4 6 1007.7 1007.6 0.0
28/04:00am 25.3 25.1 14.7 51 6.3 NE 9 17 5 9 1007.6 1007.5 0.0
28/03:30am 29.5 27.9 11.5 33 10.4 WNW 11 20 6 11 1007.4 1007.3 0.0
28/03:00am 29.1 26.0 12.1 35 9.9 WNW 20 33 11 18 1007.3 1007.2 0.0
28/02:30am 29.0 26.0 12.4 36 9.7 NW 20 30 11 16 1007.1 1007.0 0.0
28/02:00am 28.7 25.8 13.0 38 9.3 NNW 20 28 11 15 1007.2 1007.1 0.0
28/01:30am 28.1 25.8 14.0 42 8.4 WNW 19 24 10 13 1007.5 1007.4 0.0
28/01:00am 27.2 25.2 15.6 49 7.1 WNW 20 35 11 19 1007.9 1007.8 0.0
28/12:30am 27.4 25.0 16.4 51 6.8 NW 24 37 13 20 1008.3 1008.2 0.0
28/12:00am 27.4 25.4 16.4 51 6.8 NW 22 37 12 20 1008.6 1008.5 0.0
 
Date/Time
EST
Tmp

°C
App
Tmp
°C
Dew
Point
°C
Rel
Hum
%
Delta-T

°C
Wind Press
QNH
hPa
Press
MSL
hPa
Rain
since
9 am
mm
Dir
 
Spd
km/h
Gust
km/h
Spd
kts
Gust
kts
27/11:30pm 28.0 25.8 16.9 51 6.9 NW 24 41 13 22 1008.9 1008.8 0.0
27/11:00pm 27.7 25.0 17.5 53 6.4 NW 28 43 15 23 1009.1 1009.0 0.0

Latest Capital City Observations: Canberra | Sydney | Melbourne | Brisbane | Adelaide | Perth | Hobart | Darwin

Other Formats:

Comma delimited format used in spreadsheet applications
http://www.bom.gov.au/fwo/IDQ60901/IDQ60901.94592.axf

JavaScript Object Notation format (JSON) in row-major order
http://www.bom.gov.au/fwo/IDQ60901/IDQ60901.94592.json